createdAt,value
2022-11-30T00:00:34.369Z,63.53
2022-11-30T00:03:08.676Z,59.55
2022-11-30T00:05:41.265Z,60.42
2022-11-30T00:08:14.047Z,60.95
2022-11-30T00:10:46.617Z,58.72
2022-11-30T00:13:19.090Z,63.65
2022-11-30T00:15:52.433Z,64.05
2022-11-30T00:18:25.114Z,62.38
2022-11-30T00:21:02.408Z,63.53
2022-11-30T00:23:37.376Z,67.97
2022-11-30T00:26:13.155Z,59.15
2022-11-30T00:28:46.282Z,65.45
2022-11-30T00:31:19.981Z,80.72
2022-11-30T00:33:52.613Z,72.97
2022-11-30T00:36:25.207Z,63.95
2022-11-30T00:38:57.639Z,61.83
2022-11-30T00:41:30.159Z,59.63
2022-11-30T00:44:02.693Z,62.28
2022-11-30T00:46:35.295Z,61.75
2022-11-30T00:49:08.002Z,64.50
2022-11-30T00:51:40.770Z,66.90
2022-11-30T00:54:13.321Z,67.97
2022-11-30T00:56:46.038Z,67.13
2022-11-30T00:59:18.565Z,65.55
2022-11-30T01:01:51.131Z,60.72
2022-11-30T01:04:23.601Z,60.60
2022-11-30T01:06:56.176Z,63.13
2022-11-30T01:09:28.705Z,66.82
2022-11-30T01:12:01.259Z,62.90
2022-11-30T01:14:33.790Z,65.93
2022-11-30T01:17:06.334Z,63.95
2022-11-30T01:19:38.839Z,67.32
2022-11-30T01:22:11.497Z,66.32
2022-11-30T01:24:44.163Z,65.45
2022-11-30T01:27:16.812Z,65.63
2022-11-30T01:29:49.368Z,65.90
2022-11-30T01:32:22.184Z,63.67
2022-11-30T01:34:54.949Z,62.10
2022-11-30T01:37:30.422Z,65.80
2022-11-30T01:40:02.944Z,63.58
2022-11-30T01:42:38.199Z,69.93
2022-11-30T01:45:13.542Z,66.60
2022-11-30T01:47:53.076Z,66.68
2022-11-30T01:50:32.802Z,67.97
2022-11-30T01:53:09.817Z,64.78
2022-11-30T01:55:47.379Z,63.92
2022-11-30T01:58:26.378Z,63.42
2022-11-30T02:01:00.638Z,65.95
2022-11-30T02:03:40.857Z,61.53
2022-11-30T02:06:14.832Z,70.95
2022-11-30T02:08:47.582Z,69.68
2022-11-30T02:11:20.288Z,72.32
2022-11-30T02:14:18.255Z,62.90
2022-11-30T02:17:19.504Z,67.28
2022-11-30T02:20:09.615Z,65.95
2022-11-30T02:22:52.428Z,64.68
2022-11-30T02:25:26.884Z,66.70
2022-11-30T02:28:16.220Z,49.63
2022-11-30T02:30:52.704Z,70.15
2022-11-30T02:33:29.696Z,74.45
2022-11-30T02:36:06.453Z,71.13
2022-11-30T02:38:40.627Z,76.97
2022-11-30T02:41:13.091Z,71.35
2022-11-30T02:43:45.887Z,72.57
2022-11-30T02:46:40.387Z,71.45
2022-11-30T02:49:24.480Z,72.85
2022-11-30T02:51:58.292Z,70.45
2022-11-30T02:54:30.875Z,69.70
2022-11-30T02:57:03.748Z,71.50
2022-11-30T02:59:36.550Z,69.28
2022-11-30T03:02:09.195Z,67.93
2022-11-30T03:04:42.089Z,66.13
2022-11-30T03:07:14.711Z,67.57
2022-11-30T03:09:47.254Z,67.25
2022-11-30T03:12:19.858Z,63.58
2022-11-30T03:14:52.589Z,66.47
2022-11-30T03:17:25.088Z,66.65
2022-11-30T03:19:57.546Z,64.50
2022-11-30T03:22:30.175Z,69.95
2022-11-30T03:25:02.629Z,62.97
2022-11-30T03:27:35.242Z,69.47
2022-11-30T03:30:08.606Z,66.03
2022-11-30T03:32:41.439Z,67.97
2022-11-30T03:35:13.911Z,70.97
2022-11-30T03:37:47.572Z,71.32
2022-11-30T03:40:20.124Z,71.38
2022-11-30T03:42:52.949Z,75.00
2022-11-30T03:45:25.506Z,71.57
2022-11-30T03:47:58.086Z,71.65
2022-11-30T03:50:30.630Z,76.47
2022-11-30T03:53:03.254Z,76.75
2022-11-30T03:55:35.790Z,77.40
2022-11-30T03:58:08.657Z,79.97
2022-11-30T04:00:41.402Z,75.82
2022-11-30T04:03:14.373Z,72.00
2022-11-30T04:05:47.896Z,74.47
2022-11-30T04:08:20.758Z,79.90
2022-11-30T04:10:55.288Z,74.97
2022-11-30T04:13:29.697Z,73.60
2022-11-30T04:16:02.665Z,73.13
2022-11-30T04:18:37.041Z,72.90
2022-11-30T04:21:10.241Z,73.43
2022-11-30T04:23:43.171Z,75.07
2022-11-30T04:26:17.529Z,72.47
2022-11-30T04:28:50.422Z,76.70
2022-11-30T04:31:23.181Z,74.40
2022-11-30T04:33:56.117Z,76.13
2022-11-30T04:36:29.112Z,79.18
2022-11-30T04:39:02.012Z,73.90
2022-11-30T04:41:34.896Z,72.90
2022-11-30T04:44:08.023Z,77.65
2022-11-30T04:46:40.938Z,71.13
2022-11-30T04:49:13.701Z,76.13
2022-11-30T04:51:46.253Z,76.68
2022-11-30T04:54:19.068Z,79.75
2022-11-30T04:56:51.640Z,73.55
2022-11-30T04:59:24.199Z,78.30
2022-11-30T05:01:56.794Z,73.88
2022-11-30T05:04:29.511Z,79.18
2022-11-30T05:07:01.989Z,76.20
2022-11-30T05:09:34.523Z,84.10
2022-11-30T05:12:07.236Z,77.00
2022-11-30T05:14:39.845Z,73.80
2022-11-30T05:17:12.568Z,73.47
2022-11-30T05:19:45.129Z,77.35
2022-11-30T05:22:17.911Z,83.75
2022-11-30T05:24:50.494Z,78.43
2022-11-30T05:27:23.264Z,83.53
2022-11-30T05:29:55.828Z,74.85
2022-11-30T05:32:28.417Z,81.35
2022-11-30T05:35:00.979Z,76.78
2022-11-30T05:37:33.532Z,73.75
2022-11-30T05:40:07.228Z,78.85
2022-11-30T05:42:39.857Z,75.05
2022-11-30T05:45:12.771Z,70.93
2022-11-30T05:47:45.375Z,75.50
2022-11-30T05:50:18.191Z,76.13
2022-11-30T05:52:56.523Z,76.85
2022-11-30T05:55:30.090Z,78.05
2022-11-30T05:58:02.781Z,85.47
2022-11-30T06:00:35.475Z,76.57
2022-11-30T06:03:08.090Z,87.57
2022-11-30T06:05:40.824Z,76.30
2022-11-30T06:08:13.570Z,82.10
2022-11-30T06:10:46.589Z,78.85
2022-11-30T06:13:19.230Z,88.00
2022-11-30T06:15:51.816Z,84.20
2022-11-30T06:18:24.425Z,84.82
2022-11-30T06:21:08.205Z,79.60
2022-11-30T06:23:40.861Z,84.45
2022-11-30T06:26:13.549Z,80.00
2022-11-30T06:28:48.512Z,79.38
2022-11-30T06:31:21.579Z,75.70
2022-11-30T06:33:57.952Z,80.32
2022-11-30T06:36:35.718Z,76.95
2022-11-30T06:39:10.634Z,74.38
2022-11-30T06:41:43.257Z,76.15
2022-11-30T06:44:15.969Z,75.88
2022-11-30T06:46:48.605Z,74.53
2022-11-30T06:49:21.212Z,72.10
2022-11-30T06:51:54.019Z,76.43
2022-11-30T06:54:26.549Z,74.18
2022-11-30T06:56:59.180Z,72.90
2022-11-30T06:59:31.649Z,72.18
2022-11-30T07:02:08.806Z,73.53
2022-11-30T07:04:43.484Z,72.40
2022-11-30T07:07:16.612Z,71.90
2022-11-30T07:09:50.916Z,72.78
2022-11-30T07:12:24.174Z,75.07
2022-11-30T07:14:56.691Z,69.28
2022-11-30T07:17:29.277Z,71.35
2022-11-30T07:20:01.988Z,71.03
2022-11-30T07:22:34.556Z,76.32
2022-11-30T07:25:23.267Z,72.45
2022-11-30T07:27:56.287Z,75.63
2022-11-30T07:30:31.293Z,88.53
2022-11-30T07:33:04.425Z,94.78
2022-11-30T07:35:36.993Z,95.05
2022-11-30T07:38:10.039Z,84.95
2022-11-30T07:40:42.913Z,83.15
2022-11-30T07:43:16.106Z,84.70
2022-11-30T07:45:53.426Z,94.28
2022-11-30T07:48:26.094Z,86.88
2022-11-30T07:51:10.678Z,90.30
2022-11-30T07:53:43.514Z,89.93
2022-11-30T07:56:18.990Z,88.40
2022-11-30T07:58:55.600Z,82.78
2022-11-30T08:01:32.520Z,82.38
2022-11-30T08:04:06.971Z,83.03
2022-11-30T08:06:39.850Z,81.43
2022-11-30T08:09:17.803Z,88.68
2022-11-30T08:11:52.408Z,82.15
2022-11-30T08:14:25.312Z,74.38
2022-11-30T08:16:57.884Z,82.25
2022-11-30T08:19:30.469Z,82.47
2022-11-30T08:22:03.263Z,80.25
2022-11-30T08:24:36.008Z,83.07
2022-11-30T08:27:08.639Z,78.28
2022-11-30T08:29:41.217Z,73.30
2022-11-30T08:32:13.779Z,72.80
2022-11-30T08:34:48.155Z,73.57
2022-11-30T08:37:21.064Z,81.22
2022-11-30T08:39:53.648Z,81.00
2022-11-30T08:42:26.174Z,82.78
2022-11-30T08:44:59.052Z,76.57
2022-11-30T08:47:31.884Z,74.35
2022-11-30T08:50:04.985Z,73.35
2022-11-30T08:52:37.498Z,74.28
2022-11-30T08:55:10.324Z,80.60
2022-11-30T08:57:43.288Z,86.90
2022-11-30T09:00:17.393Z,79.57
2022-11-30T09:02:50.005Z,86.47
2022-11-30T09:05:23.077Z,80.38
2022-11-30T09:07:55.732Z,77.30
2022-11-30T09:10:28.508Z,83.60
2022-11-30T09:13:01.086Z,83.25
2022-11-30T09:15:34.501Z,84.30
2022-11-30T09:18:07.265Z,83.38
2022-11-30T09:20:39.804Z,76.82
2022-11-30T09:23:12.354Z,74.25
2022-11-30T09:25:45.555Z,69.85
2022-11-30T09:28:18.289Z,64.45
2022-11-30T09:30:52.060Z,68.90
2022-11-30T09:33:26.212Z,62.13
2022-11-30T09:36:01.268Z,66.70
2022-11-30T09:38:34.039Z,64.53
2022-11-30T09:41:15.085Z,59.35
2022-11-30T09:43:56.927Z,57.40
2022-11-30T09:46:37.302Z,58.25
2022-11-30T09:49:24.687Z,60.42
2022-11-30T09:52:01.305Z,64.32
2022-11-30T09:54:44.602Z,58.88
2022-11-30T09:57:22.178Z,60.50
2022-11-30T09:59:59.260Z,54.67
2022-11-30T10:02:38.391Z,52.42
2022-11-30T10:05:17.131Z,54.90
2022-11-30T10:08:00.247Z,50.00
2022-11-30T10:10:51.374Z,49.88
2022-11-30T10:13:30.803Z,49.20
2022-11-30T10:16:11.046Z,39.55
2022-11-30T10:18:52.405Z,36.85
2022-11-30T10:21:52.560Z,31.58
2022-11-30T10:24:53.176Z,29.90
2022-11-30T10:27:37.224Z,37.88
2022-11-30T10:30:20.010Z,31.77
2022-11-30T10:32:59.702Z,29.60
2022-11-30T10:35:41.663Z,34.17
2022-11-30T10:38:21.922Z,30.60
2022-11-30T10:41:02.034Z,29.00
2022-11-30T10:43:44.365Z,28.02
2022-11-30T10:46:26.541Z,29.67
2022-11-30T10:49:08.379Z,26.25
2022-11-30T10:51:44.775Z,30.15
2022-11-30T10:54:21.698Z,23.02
2022-11-30T10:56:54.562Z,24.70
2022-11-30T10:59:41.151Z,24.48
2022-11-30T11:02:46.056Z,23.00
2022-11-30T11:05:30.315Z,23.85
2022-11-30T11:08:20.797Z,20.65
2022-11-30T11:10:53.505Z,18.95
2022-11-30T11:13:43.017Z,20.55
2022-11-30T11:16:15.646Z,22.10
2022-11-30T11:18:57.860Z,20.38
2022-11-30T11:21:30.523Z,21.55
2022-11-30T11:24:10.339Z,21.08
2022-11-30T11:26:51.647Z,24.30
2022-11-30T11:29:32.097Z,21.67
2022-11-30T11:32:23.045Z,22.83
2022-11-30T11:34:59.423Z,22.30
2022-11-30T11:37:38.475Z,20.63
2022-11-30T11:40:16.746Z,19.92
2022-11-30T11:42:54.065Z,37.10
2022-11-30T11:45:32.214Z,81.97
2022-11-30T11:48:12.618Z,24.73
2022-11-30T11:51:08.538Z,22.55
2022-11-30T11:53:59.965Z,22.02
2022-11-30T11:56:37.109Z,23.83
2022-11-30T11:59:11.787Z,24.73
2022-11-30T12:02:03.687Z,26.92
2022-11-30T12:05:10.341Z,30.25
2022-11-30T12:13:27.430Z,34.97
2022-11-30T12:16:01.144Z,34.25
2022-11-30T12:18:47.709Z,35.30
2022-11-30T12:21:30.060Z,38.45
2022-11-30T12:24:13.211Z,34.67
2022-11-30T12:26:51.985Z,31.15
2022-11-30T12:29:30.049Z,32.15
2022-11-30T12:32:25.814Z,34.10
2022-11-30T12:35:15.005Z,31.02
2022-11-30T12:38:07.714Z,28.15
2022-11-30T12:40:56.627Z,28.20
2022-11-30T12:44:00.938Z,27.20
2022-11-30T12:46:56.962Z,27.83
2022-11-30T12:52:25.647Z,29.92
2022-11-30T12:55:20.909Z,29.25
2022-11-30T12:58:10.370Z,29.70
2022-11-30T13:01:05.538Z,31.05
2022-11-30T13:04:09.446Z,27.33
2022-11-30T13:06:49.136Z,28.42
2022-11-30T13:09:31.961Z,27.95
2022-11-30T13:12:12.516Z,27.10
2022-11-30T13:14:47.587Z,27.30
2022-11-30T13:17:20.896Z,25.67
2022-11-30T13:20:00.534Z,23.42
2022-11-30T13:22:57.105Z,20.45
2022-11-30T13:28:49.407Z,22.85
2022-11-30T13:31:27.682Z,23.83
2022-11-30T13:34:01.166Z,25.73
2022-11-30T13:36:50.525Z,27.42
2022-11-30T13:39:25.399Z,26.25
2022-11-30T13:42:04.023Z,28.92
2022-11-30T13:44:40.288Z,27.08
2022-11-30T13:47:29.051Z,27.77
2022-11-30T13:50:22.790Z,26.02
2022-11-30T13:52:59.647Z,26.02
2022-11-30T13:55:50.434Z,23.27
2022-11-30T13:58:23.636Z,24.63
2022-11-30T14:01:17.095Z,26.73
2022-11-30T14:04:21.448Z,27.05
2022-11-30T14:06:56.629Z,26.50
2022-11-30T14:10:00.772Z,26.05
2022-11-30T14:12:35.186Z,27.02
2022-11-30T14:15:34.715Z,28.65
2022-11-30T14:18:09.050Z,26.88
2022-11-30T14:20:50.123Z,29.43
2022-11-30T14:23:30.296Z,27.23
2022-11-30T14:26:11.806Z,25.65
2022-11-30T14:28:54.361Z,25.35
2022-11-30T14:31:35.144Z,26.75
2022-11-30T14:34:22.154Z,27.77
2022-11-30T14:37:00.025Z,24.38
2022-11-30T14:39:36.682Z,28.80
2022-11-30T14:42:26.606Z,26.52
2022-11-30T14:44:59.259Z,28.83
2022-11-30T14:47:34.398Z,25.30
2022-11-30T14:52:44.457Z,29.95
2022-11-30T14:55:35.709Z,27.80
2022-11-30T14:58:41.028Z,29.88
2022-11-30T15:01:19.795Z,27.27
2022-11-30T15:03:56.885Z,26.77
2022-11-30T15:06:33.463Z,25.95
2022-11-30T15:09:13.795Z,25.23
2022-11-30T15:11:50.232Z,27.33
2022-11-30T15:14:23.344Z,27.52
2022-11-30T15:16:58.581Z,27.30
2022-11-30T15:22:06.416Z,34.80
2022-11-30T15:24:40.236Z,21.42
2022-11-30T15:27:19.211Z,30.05
2022-11-30T15:29:59.594Z,28.33
2022-11-30T15:32:32.739Z,29.08
2022-11-30T15:35:06.293Z,28.15
2022-11-30T15:37:42.172Z,31.20
2022-11-30T15:40:18.443Z,30.10
2022-11-30T15:42:51.594Z,30.15
2022-11-30T15:45:31.625Z,32.55
2022-11-30T15:48:30.239Z,30.52
2022-11-30T15:51:04.567Z,37.53
2022-11-30T15:53:53.533Z,34.50
2022-11-30T15:56:29.198Z,57.95
2022-11-30T15:59:05.655Z,34.20
2022-11-30T16:02:14.170Z,35.22
2022-11-30T16:05:10.876Z,44.38
2022-11-30T16:08:00.130Z,26.70
2022-11-30T16:10:37.156Z,25.88
2022-11-30T16:13:21.359Z,27.73
2022-11-30T16:15:54.678Z,28.55
2022-11-30T16:18:29.097Z,26.92
2022-11-30T16:21:03.669Z,27.55
2022-11-30T16:23:37.641Z,26.60
2022-11-30T16:26:35.977Z,28.17
2022-11-30T16:29:07.506Z,29.55
2022-11-30T16:31:40.095Z,29.55
2022-11-30T16:34:13.156Z,32.58
2022-11-30T16:36:45.701Z,30.92
2022-11-30T16:39:18.509Z,32.92
2022-11-30T16:41:51.116Z,63.97
2022-11-30T16:44:26.563Z,51.80
2022-11-30T16:46:59.659Z,36.78
2022-11-30T16:49:32.825Z,31.02
2022-11-30T16:52:05.735Z,38.38
2022-11-30T16:54:38.608Z,35.70
2022-11-30T16:57:11.142Z,30.80
2022-11-30T16:59:43.791Z,29.33
2022-11-30T17:02:21.795Z,33.15
2022-11-30T17:04:56.582Z,37.33
2022-11-30T17:07:29.204Z,36.97
2022-11-30T17:10:02.014Z,35.53
2022-11-30T17:12:35.914Z,37.33
2022-11-30T17:15:19.302Z,47.05
2022-11-30T17:17:51.970Z,78.18
2022-11-30T17:20:25.645Z,73.93
2022-11-30T17:22:58.351Z,95.15
2022-11-30T17:25:32.830Z,98.32
2022-11-30T17:28:05.536Z,100.35
2022-11-30T17:30:40.218Z,65.82
2022-11-30T17:33:12.860Z,57.67
2022-11-30T17:35:46.068Z,40.13
2022-11-30T17:38:19.385Z,37.97
2022-11-30T17:40:52.262Z,38.67
2022-11-30T17:43:26.059Z,31.33
2022-11-30T17:46:04.678Z,33.80
2022-11-30T17:48:39.354Z,31.77
2022-11-30T17:51:13.815Z,32.53
2022-11-30T17:53:47.964Z,32.20
2022-11-30T17:56:20.759Z,32.95
2022-11-30T17:58:53.394Z,35.22
2022-11-30T18:01:28.863Z,41.38
2022-11-30T18:04:02.584Z,44.65
2022-11-30T18:06:35.194Z,46.45
2022-11-30T18:09:07.863Z,38.67
2022-11-30T18:11:40.713Z,36.05
2022-11-30T18:14:13.500Z,37.15
2022-11-30T18:16:46.840Z,35.25
2022-11-30T18:19:19.839Z,36.38
2022-11-30T18:21:52.770Z,42.08
2022-11-30T18:24:25.977Z,39.95
2022-11-30T18:26:59.000Z,37.20
2022-11-30T18:29:31.574Z,39.88
2022-11-30T18:32:04.402Z,50.58
2022-11-30T18:34:37.263Z,37.90
2022-11-30T18:37:10.083Z,35.92
2022-11-30T18:39:42.895Z,38.05
2022-11-30T18:42:17.444Z,46.65
2022-11-30T18:44:50.602Z,45.78
2022-11-30T18:47:23.384Z,36.97
2022-11-30T18:49:55.959Z,37.20
2022-11-30T18:52:29.412Z,31.85
2022-11-30T18:55:03.751Z,33.42
2022-11-30T18:57:36.832Z,31.88
2022-11-30T19:00:10.459Z,34.20
2022-11-30T19:02:45.303Z,37.80
2022-11-30T19:05:34.036Z,33.85
2022-11-30T19:08:12.077Z,48.90
2022-11-30T19:10:45.053Z,62.30
2022-11-30T19:13:18.055Z,66.57
2022-11-30T19:15:51.040Z,48.38
2022-11-30T19:18:23.966Z,38.28
2022-11-30T19:20:57.677Z,34.63
2022-11-30T19:23:30.571Z,36.92
2022-11-30T19:26:06.983Z,38.47
2022-11-30T19:28:42.110Z,46.45
2022-11-30T19:31:19.108Z,36.40
2022-11-30T19:33:55.607Z,38.42
2022-11-30T19:36:30.923Z,37.22
2022-11-30T19:39:04.338Z,38.53
2022-11-30T19:41:37.194Z,44.00
2022-11-30T19:44:14.998Z,43.42
2022-11-30T19:46:47.646Z,48.90
2022-11-30T19:49:20.240Z,44.35
2022-11-30T19:51:52.830Z,45.20
2022-11-30T19:56:43.048Z,47.00
2022-11-30T19:59:15.571Z,49.88
2022-11-30T20:01:48.131Z,52.35
2022-11-30T20:04:21.839Z,54.28
2022-11-30T20:06:55.092Z,60.50
2022-11-30T20:09:28.415Z,50.42
2022-11-30T20:12:01.471Z,52.80
2022-11-30T20:14:34.587Z,51.90
2022-11-30T20:17:08.670Z,52.53
2022-11-30T20:19:41.323Z,52.13
2022-11-30T20:22:14.347Z,54.75
2022-11-30T20:24:47.207Z,54.95
2022-11-30T20:27:24.581Z,60.90
2022-11-30T20:29:58.361Z,65.00
2022-11-30T20:32:31.812Z,58.42
2022-11-30T20:35:05.112Z,65.90
2022-11-30T20:37:37.928Z,63.35
2022-11-30T20:40:11.776Z,58.55
2022-11-30T20:42:44.524Z,52.67
2022-11-30T20:45:17.629Z,51.92
2022-11-30T20:47:50.299Z,53.85
2022-11-30T20:50:23.981Z,54.47
2022-11-30T20:52:56.720Z,53.30
2022-11-30T20:55:29.296Z,50.53
2022-11-30T20:58:01.969Z,53.70
2022-11-30T21:00:34.464Z,51.67
2022-11-30T21:03:07.324Z,47.45
2022-11-30T21:05:40.206Z,51.13
2022-11-30T21:08:12.885Z,52.00
2022-11-30T21:10:48.351Z,51.65
2022-11-30T21:13:21.287Z,51.63
2022-11-30T21:15:54.214Z,52.58
2022-11-30T21:18:30.277Z,50.92
2022-11-30T21:21:13.153Z,51.92
2022-11-30T21:23:48.763Z,54.85
2022-11-30T21:26:27.333Z,51.85
2022-11-30T21:29:06.141Z,55.42
2022-11-30T21:31:39.113Z,49.45
2022-11-30T21:34:12.011Z,48.83
2022-11-30T21:36:44.676Z,48.75
2022-11-30T21:39:17.288Z,50.28
2022-11-30T21:41:49.784Z,52.50
2022-11-30T21:44:22.517Z,49.75
2022-11-30T21:46:55.030Z,49.55
2022-11-30T21:49:28.018Z,52.47
2022-11-30T21:52:00.751Z,49.10
2022-11-30T21:54:33.353Z,48.50
2022-11-30T21:57:06.137Z,47.90
2022-11-30T21:59:38.894Z,49.45
2022-11-30T22:02:12.707Z,48.17
2022-11-30T22:04:45.340Z,52.72
2022-11-30T22:07:17.817Z,47.05
2022-11-30T22:09:51.664Z,50.45
2022-11-30T22:12:24.418Z,54.65
2022-11-30T22:14:56.995Z,53.50
2022-11-30T22:17:29.617Z,47.28
2022-11-30T22:20:02.272Z,48.47
2022-11-30T22:22:34.852Z,47.35
2022-11-30T22:25:08.227Z,50.30
2022-11-30T22:27:40.775Z,47.67
2022-11-30T22:30:13.917Z,49.03
2022-11-30T22:32:46.561Z,44.92
2022-11-30T22:35:19.331Z,46.50
2022-11-30T22:37:51.833Z,44.03
2022-11-30T22:40:25.229Z,45.42
2022-11-30T22:42:58.203Z,45.70
2022-11-30T22:45:33.594Z,44.55
2022-11-30T22:48:06.671Z,45.08
2022-11-30T22:50:40.654Z,48.92
2022-11-30T22:53:13.243Z,48.00
2022-11-30T22:55:48.300Z,45.30
2022-11-30T22:58:21.296Z,43.60
2022-11-30T23:00:55.352Z,47.08
2022-11-30T23:03:28.860Z,50.47
2022-11-30T23:06:01.484Z,49.05
2022-11-30T23:08:34.562Z,48.40
2022-11-30T23:11:11.089Z,46.50
2022-11-30T23:13:44.365Z,45.40
2022-11-30T23:16:17.643Z,43.88
2022-11-30T23:18:54.727Z,43.95
2022-11-30T23:21:30.224Z,43.80
2022-11-30T23:24:05.543Z,44.67
2022-11-30T23:26:38.808Z,43.28
2022-11-30T23:29:14.073Z,45.33
2022-11-30T23:34:22.416Z,46.72
2022-11-30T23:36:55.108Z,45.33
2022-11-30T23:39:27.680Z,45.83
2022-11-30T23:42:00.546Z,45.72
2022-11-30T23:44:33.112Z,45.80
2022-11-30T23:47:06.059Z,50.03
2022-11-30T23:49:38.679Z,49.30
2022-11-30T23:52:11.196Z,49.80
2022-11-30T23:54:43.774Z,43.60
2022-11-30T23:57:16.251Z,48.40
2022-11-30T23:59:48.908Z,43.22
